createdAt,value
2022-09-05T00:01:39.528Z,100544.50
2022-09-05T00:04:24.921Z,100550.13
2022-09-05T00:07:43.368Z,100543.84
2022-09-05T00:10:13.778Z,100547.59
2022-09-05T00:12:42.688Z,100551.31
2022-09-05T00:15:29.144Z,100546.25
2022-09-05T00:20:21.959Z,100542.69
2022-09-05T00:24:31.664Z,100542.69
2022-09-05T00:24:32.906Z,100547.81
2022-09-05T00:26:57.839Z,100539.84
2022-09-05T00:31:05.501Z,100540.19
2022-09-05T00:32:45.849Z,100535.13
2022-09-05T00:35:12.546Z,100532.75
2022-09-05T00:37:44.541Z,100539.19
2022-09-05T00:40:23.553Z,100539.53
2022-09-05T00:42:53.240Z,100534.47
2022-09-05T00:45:27.423Z,100533.97
2022-09-05T00:48:06.487Z,100539.59
2022-09-05T00:50:32.951Z,100528.06
2022-09-05T00:53:07.528Z,100533.84
2022-09-05T00:55:37.164Z,100528.75
2022-09-05T00:58:11.237Z,100536.22
2022-09-05T01:00:54.988Z,100539.97
2022-09-05T01:03:21.496Z,100542.00
2022-09-05T01:06:06.900Z,100533.19
2022-09-05T01:08:49.753Z,100539.63
2022-09-05T01:11:35.776Z,100542.69
2022-09-05T01:14:20.644Z,100542.19
2022-09-05T01:17:05.586Z,100535.41
2022-09-05T01:19:37.988Z,100543.72
2022-09-05T01:22:34.847Z,100540.34
2022-09-05T01:25:20.030Z,100538.66
2022-09-05T01:29:14.990Z,100533.56
2022-09-05T01:31:03.820Z,100535.63
2022-09-05T01:33:48.804Z,100540.22
2022-09-05T01:36:18.633Z,100534.78
2022-09-05T01:38:55.315Z,100539.34
2022-09-05T01:41:46.208Z,100537.66
2022-09-05T01:44:29.032Z,100528.88
2022-09-05T01:47:01.283Z,100532.25
2022-09-05T01:49:30.069Z,100546.66
2022-09-05T01:52:15.235Z,100542.06
2022-09-05T01:55:00.207Z,100538.50
2022-09-05T01:57:56.292Z,100536.63
2022-09-05T02:00:25.384Z,100538.69
2022-09-05T02:03:04.197Z,100542.59
2022-09-05T02:05:49.018Z,100541.03
2022-09-05T02:08:16.045Z,100550.03
2022-09-05T02:10:48.501Z,100549.19
2022-09-05T02:13:20.802Z,100553.63
2022-09-05T02:15:59.947Z,100547.47
2022-09-05T02:18:44.363Z,100548.53
2022-09-05T02:21:20.047Z,100554.97
2022-09-05T02:23:51.342Z,100556.66
2022-09-05T02:26:26.238Z,100564.81
2022-09-05T02:29:05.554Z,100552.25
2022-09-05T02:31:48.498Z,100550.72
2022-09-05T02:34:25.716Z,100545.81
2022-09-05T02:37:01.015Z,100565.81
2022-09-05T02:45:07.674Z,100559.88
2022-09-05T02:45:17.869Z,100562.78
2022-09-05T02:45:50.131Z,100566.50
2022-09-05T02:48:17.181Z,100564.78
2022-09-05T02:57:18.921Z,100562.78
2022-09-05T02:57:34.883Z,100571.59
2022-09-05T02:57:45.082Z,100573.28
2022-09-05T02:59:50.520Z,100571.06
2022-09-05T03:02:32.153Z,100576.31
2022-09-05T03:05:05.458Z,100579.72
2022-09-05T03:07:46.956Z,100570.59
2022-09-05T03:10:45.688Z,100577.34
2022-09-05T03:13:24.717Z,100580.06
2022-09-05T03:15:51.181Z,100570.25
2022-09-05T03:18:40.747Z,100581.09
2022-09-05T03:21:25.924Z,100576.69
2022-09-05T03:24:10.842Z,100580.59
2022-09-05T03:26:43.468Z,100586.03
2022-09-05T03:29:18.760Z,100576.84
2022-09-05T03:31:56.956Z,100579.41
2022-09-05T03:34:42.196Z,100580.59
2022-09-05T03:37:27.039Z,100584.31
2022-09-05T03:40:15.967Z,100587.19
2022-09-05T03:42:45.922Z,100594.66
2022-09-05T03:45:36.981Z,100587.88
2022-09-05T03:48:27.987Z,100595.00
2022-09-05T03:57:07.729Z,100597.72
2022-09-05T03:57:14.834Z,100604.16
2022-09-05T03:57:32.479Z,100595.00
2022-09-05T04:00:10.171Z,100598.38
2022-09-05T04:08:06.828Z,100602.09
2022-09-05T04:08:14.026Z,100609.22
2022-09-05T04:08:32.436Z,100610.06
2022-09-05T04:11:37.621Z,100623.47
2022-09-05T04:14:09.885Z,100623.47
2022-09-05T04:16:54.699Z,100621.78
2022-09-05T04:19:21.225Z,100628.91
2022-09-05T04:22:13.911Z,100628.91
2022-09-05T04:25:03.790Z,100629.63
2022-09-05T04:27:48.577Z,100628.59
2022-09-05T04:30:38.554Z,100631.63
2022-09-05T04:33:04.506Z,100638.44
2022-09-05T04:35:47.252Z,100641.81
2022-09-05T04:38:15.427Z,100649.78
2022-09-05T04:40:44.764Z,100653.69
2022-09-05T04:43:30.026Z,100655.41
2022-09-05T04:46:08.922Z,100656.06
2022-09-05T04:48:41.977Z,100664.22
2022-09-05T04:51:11.580Z,100660.50
2022-09-05T04:53:40.717Z,100666.25
2022-09-05T04:56:13.216Z,100668.28
2022-09-05T05:00:41.121Z,100665.88
2022-09-05T05:06:00.103Z,100674.38
2022-09-05T05:06:15.299Z,100677.41
2022-09-05T05:07:44.296Z,100680.44
2022-09-05T05:12:28.859Z,100683.50
2022-09-05T05:17:56.499Z,100685.50
2022-09-05T05:18:15.778Z,100687.53
2022-09-05T05:19:06.037Z,100678.03
2022-09-05T05:21:49.320Z,100685.44
2022-09-05T05:24:21.804Z,100694.56
2022-09-05T05:26:56.812Z,100696.75
2022-09-05T05:29:37.562Z,100703.28
2022-09-05T05:32:04.737Z,100699.81
2022-09-05T05:34:41.563Z,100704.75
2022-09-05T05:37:25.522Z,100703.22
2022-09-05T05:40:07.153Z,100711.97
2022-09-05T05:42:34.002Z,100705.31
2022-09-05T05:45:01.087Z,100709.94
2022-09-05T05:47:32.618Z,100718.16
2022-09-05T05:49:59.305Z,100728.03
2022-09-05T05:52:28.731Z,100730.97
2022-09-05T05:55:50.348Z,100726.66
2022-09-05T05:58:03.621Z,100732.97
2022-09-05T06:00:51.362Z,100731.97
2022-09-05T06:03:26.209Z,100728.88
2022-09-05T06:06:14.106Z,100734.09
2022-09-05T06:12:05.580Z,100735.13
2022-09-05T06:14:56.908Z,100748.50
2022-09-05T06:14:57.253Z,100739.22
2022-09-05T06:17:37.444Z,100746.63
2022-09-05T06:22:04.714Z,100749.81
2022-09-05T06:23:08.872Z,100747.34
2022-09-05T06:25:57.176Z,100748.03
2022-09-05T06:28:28.211Z,100746.47
2022-09-05T06:31:29.051Z,100747.78
2022-09-05T06:34:26.637Z,100747.75
2022-09-05T06:37:06.323Z,100745.72
2022-09-05T06:39:32.915Z,100749.34
2022-09-05T06:41:59.409Z,100747.22
2022-09-05T06:44:26.402Z,100744.69
2022-09-05T06:47:23.651Z,100746.97
2022-09-05T06:50:04.439Z,100750.53
2022-09-05T06:53:30.061Z,100748.09
2022-09-05T06:55:57.438Z,100748.97
2022-09-05T06:58:23.889Z,100745.38
2022-09-05T07:00:52.033Z,100748.31
2022-09-05T07:03:22.909Z,100746.63
2022-09-05T07:06:04.700Z,100744.13
2022-09-05T07:08:44.449Z,100756.56
2022-09-05T07:11:19.995Z,100752.97
2022-09-05T07:13:52.503Z,100751.25
2022-09-05T07:16:42.129Z,100755.66
2022-09-05T07:19:10.249Z,100747.72
2022-09-05T07:21:43.113Z,100747.25
2022-09-05T07:24:53.408Z,100760.72
2022-09-05T07:27:34.364Z,100754.22
2022-09-05T07:30:14.231Z,100751.22
2022-09-05T07:32:44.985Z,100759.19
2022-09-05T07:35:17.193Z,100757.16
2022-09-05T07:37:45.973Z,100759.94
2022-09-05T07:40:25.753Z,100763.25
2022-09-05T07:43:08.767Z,100762.13
2022-09-05T07:45:37.909Z,100766.50
2022-09-05T07:48:11.990Z,100762.03
2022-09-05T07:56:53.934Z,100758.34
2022-09-05T07:57:04.917Z,100754.56
2022-09-05T07:57:08.252Z,100749.59
2022-09-05T07:59:33.314Z,100754.81
2022-09-05T08:02:00.819Z,100744.72
2022-09-05T08:04:32.573Z,100748.38
2022-09-05T08:07:48.802Z,100750.63
2022-09-05T08:10:06.529Z,100739.06
2022-09-05T08:13:22.952Z,100751.84
2022-09-05T08:16:09.701Z,100746.47
2022-09-05T08:18:36.647Z,100747.09
2022-09-05T08:21:26.667Z,100744.94
2022-09-05T08:23:54.436Z,100739.34
2022-09-05T08:26:26.658Z,100740.19
2022-09-05T08:28:56.442Z,100742.59
2022-09-05T08:31:27.542Z,100749.69
2022-09-05T08:33:57.497Z,100744.03
2022-09-05T08:36:30.148Z,100740.41
2022-09-05T08:39:00.852Z,100749.97
2022-09-05T08:41:43.170Z,100744.38
2022-09-05T08:46:40.345Z,100746.84
2022-09-05T08:47:11.062Z,100749.09
2022-09-05T08:50:01.085Z,100738.09
2022-09-05T08:52:43.393Z,100732.91
2022-09-05T08:55:28.790Z,100734.78
2022-09-05T08:58:07.992Z,100732.50
2022-09-05T09:00:40.932Z,100722.84
2022-09-05T09:03:40.450Z,100720.22
2022-09-05T09:06:20.905Z,100722.75
2022-09-05T09:08:51.004Z,100725.78
2022-09-05T09:11:36.720Z,100716.03
2022-09-05T09:14:30.599Z,100722.53
2022-09-05T09:17:02.186Z,100718.03
2022-09-05T09:19:44.153Z,100723.66
2022-09-05T09:22:13.641Z,100709.97
2022-09-05T09:25:15.102Z,100714.06
2022-09-05T09:28:46.753Z,100709.94
2022-09-05T09:30:35.808Z,100710.03
2022-09-05T09:33:04.072Z,100709.50
2022-09-05T09:35:30.648Z,100712.41
2022-09-05T09:38:16.073Z,100707.53
2022-09-05T09:40:52.390Z,100703.38
2022-09-05T09:43:32.118Z,100711.50
2022-09-05T09:46:01.410Z,100712.50
2022-09-05T09:48:36.953Z,100707.38
2022-09-05T09:51:22.902Z,100706.09
2022-09-05T09:54:09.864Z,100703.09
2022-09-05T09:56:39.011Z,100704.53
2022-09-05T09:59:17.697Z,100710.94
2022-09-05T10:02:07.359Z,100709.06
2022-09-05T10:10:39.943Z,100705.88
2022-09-05T10:10:47.757Z,100701.91
2022-09-05T10:11:52.893Z,100706.63
2022-09-05T10:14:36.718Z,100696.44
2022-09-05T10:17:08.220Z,100696.38
2022-09-05T10:20:10.302Z,100683.38
2022-09-05T10:22:38.230Z,100691.66
2022-09-05T10:25:22.678Z,100682.53
2022-09-05T10:28:09.031Z,100671.56
2022-09-05T10:34:38.104Z,100676.28
2022-09-05T10:35:09.385Z,100668.66
2022-09-05T10:36:54.684Z,100669.03
2022-09-05T10:39:25.909Z,100669.84
2022-09-05T10:41:57.214Z,100672.50
2022-09-05T10:44:32.422Z,100677.06
2022-09-05T10:47:09.871Z,100675.28
2022-09-05T10:49:42.384Z,100667.53
2022-09-05T10:52:20.441Z,100677.28
2022-09-05T10:54:52.706Z,100669.34
2022-09-05T10:57:35.148Z,100672.47
2022-09-05T11:02:19.414Z,100664.53
2022-09-05T11:02:57.754Z,100671.56
2022-09-05T11:05:24.697Z,100659.63
2022-09-05T11:07:59.001Z,100653.00
2022-09-05T11:10:33.934Z,100657.50
2022-09-05T11:13:03.479Z,100651.50
2022-09-05T11:15:30.000Z,100653.09
2022-09-05T11:18:06.333Z,100646.09
2022-09-05T11:20:44.881Z,100645.25
2022-09-05T11:23:15.310Z,100642.03
2022-09-05T11:25:43.110Z,100645.31
2022-09-05T11:28:22.782Z,100639.50
2022-09-05T11:30:51.489Z,100636.25
2022-09-05T11:39:10.734Z,100638.81
2022-09-05T11:40:04.532Z,100642.75
2022-09-05T11:40:10.854Z,100629.22
2022-09-05T11:41:57.248Z,100642.06
2022-09-05T11:44:42.443Z,100638.19
2022-09-05T11:47:28.265Z,100623.34
2022-09-05T11:50:02.110Z,100633.38
2022-09-05T11:52:40.880Z,100627.00
2022-09-05T11:55:22.688Z,100615.44
2022-09-05T11:57:56.915Z,100612.44
2022-09-05T12:00:44.013Z,100611.22
2022-09-05T12:03:59.027Z,100617.78
2022-09-05T12:06:21.590Z,100603.44
2022-09-05T12:08:54.979Z,100598.84
2022-09-05T12:11:32.627Z,100595.03
2022-09-05T12:14:01.902Z,100600.31
2022-09-05T12:16:50.891Z,100601.91
2022-09-05T12:19:35.702Z,100594.66
2022-09-05T12:22:23.886Z,100604.72
2022-09-05T12:25:16.578Z,100601.94
2022-09-05T12:27:47.581Z,100598.03
2022-09-05T12:30:36.412Z,100603.63
2022-09-05T12:36:01.243Z,100601.34
2022-09-05T12:40:06.274Z,100591.19
2022-09-05T12:41:01.029Z,100597.50
2022-09-05T12:42:11.401Z,100589.09
2022-09-05T12:44:44.828Z,100591.59
2022-09-05T12:47:24.043Z,100591.28
2022-09-05T12:50:03.455Z,100596.97
2022-09-05T12:52:46.847Z,100592.66
2022-09-05T12:55:13.507Z,100591.38
2022-09-05T13:01:46.238Z,100583.34
2022-09-05T13:03:07.543Z,100588.75
2022-09-05T13:03:31.908Z,100582.75
2022-09-05T13:06:03.374Z,100585.22
2022-09-05T13:08:37.832Z,100591.91
2022-09-05T13:14:50.820Z,100592.97
2022-09-05T13:15:01.509Z,100587.31
2022-09-05T13:16:48.204Z,100592.22
2022-09-05T13:19:37.811Z,100597.50
2022-09-05T13:22:05.376Z,100593.91
2022-09-05T13:24:38.717Z,100580.34
2022-09-05T13:27:08.844Z,100583.19
2022-09-05T13:30:09.890Z,100585.78
2022-09-05T13:38:01.629Z,100589.56
2022-09-05T13:38:14.435Z,100580.56
2022-09-05T13:38:55.831Z,100576.13
2022-09-05T13:41:29.342Z,100580.75
2022-09-05T13:44:00.456Z,100579.59
2022-09-05T13:47:29.802Z,100577.41
2022-09-05T13:50:14.150Z,100583.34
2022-09-05T13:52:43.726Z,100574.00
2022-09-05T13:55:10.697Z,100575.69
2022-09-05T13:57:40.485Z,100578.38
2022-09-05T14:00:07.174Z,100574.94
2022-09-05T14:06:45.729Z,100569.91
2022-09-05T14:11:57.440Z,100569.84
2022-09-05T14:17:53.818Z,100569.81
2022-09-05T14:20:42.977Z,100564.63
2022-09-05T14:23:13.526Z,100568.75
2022-09-05T14:25:43.200Z,100565.22
2022-09-05T14:28:25.821Z,100557.38
2022-09-05T14:33:39.697Z,100557.72
2022-09-05T14:37:41.620Z,100558.88
2022-09-05T14:37:49.292Z,100556.50
2022-09-05T14:39:43.669Z,100552.00
2022-09-05T14:42:34.894Z,100549.72
2022-09-05T14:45:19.634Z,100553.19
2022-09-05T14:47:47.570Z,100549.25
2022-09-05T14:50:29.326Z,100549.03
2022-09-05T14:56:00.072Z,100537.09
2022-09-05T15:02:39.477Z,100538.25
2022-09-05T15:02:43.485Z,100538.91
2022-09-05T15:04:40.881Z,100535.72
2022-09-05T15:07:20.819Z,100536.88
2022-09-05T15:12:15.505Z,100523.00
2022-09-05T15:12:45.998Z,100514.78
2022-09-05T15:15:25.677Z,100522.81
2022-09-05T15:17:55.855Z,100526.75
2022-09-05T15:20:29.861Z,100517.66
2022-09-05T15:22:57.624Z,100513.31
2022-09-05T15:25:26.638Z,100517.66
2022-09-05T15:27:53.536Z,100516.19
2022-09-05T15:30:25.603Z,100513.44
2022-09-05T15:33:17.564Z,100511.25
2022-09-05T15:35:45.067Z,100513.44
2022-09-05T15:38:28.858Z,100512.28
2022-09-05T15:41:19.758Z,100506.97
2022-09-05T15:43:52.136Z,100494.13
2022-09-05T15:46:35.828Z,100498.63
2022-09-05T15:49:03.329Z,100502.38
2022-09-05T15:51:35.108Z,100503.06
2022-09-05T15:54:05.286Z,100507.75
2022-09-05T15:56:37.064Z,100493.09
2022-09-05T15:59:04.946Z,100502.97
2022-09-05T16:01:59.890Z,100494.06
2022-09-05T16:08:36.872Z,100503.75
2022-09-05T16:10:31.653Z,100498.59
2022-09-05T16:10:39.700Z,100496.91
2022-09-05T16:12:54.599Z,100494.19
2022-09-05T16:19:34.877Z,100489.91
2022-09-05T16:23:15.701Z,100491.41
2022-09-05T16:23:23.943Z,100483.88
2022-09-05T16:24:05.799Z,100480.22
2022-09-05T16:26:44.335Z,100480.22
2022-09-05T16:29:25.289Z,100483.59
2022-09-05T16:31:55.846Z,100483.09
2022-09-05T16:34:31.323Z,100484.81
2022-09-05T16:37:08.250Z,100484.81
2022-09-05T16:39:38.418Z,100483.50
2022-09-05T16:42:15.130Z,100492.13
2022-09-05T16:44:52.650Z,100494.03
2022-09-05T16:47:24.579Z,100491.72
2022-09-05T16:50:16.476Z,100493.22
2022-09-05T16:52:53.494Z,100488.78
2022-09-05T16:55:29.516Z,100488.97
2022-09-05T16:58:03.390Z,100484.88
2022-09-05T17:00:59.687Z,100483.53
2022-09-05T17:03:46.497Z,100486.44
2022-09-05T17:06:25.897Z,100481.25
2022-09-05T17:08:55.502Z,100489.66
2022-09-05T17:11:54.560Z,100487.22
2022-09-05T17:14:31.251Z,100485.63
2022-09-05T17:17:01.289Z,100490.75
2022-09-05T17:20:07.093Z,100493.31
2022-09-05T17:27:19.956Z,100493.03
2022-09-05T17:29:26.604Z,100500.78
2022-09-05T17:29:30.534Z,100497.09
2022-09-05T17:31:54.927Z,100497.84
2022-09-05T17:34:29.211Z,100490.50
2022-09-05T17:37:17.866Z,100496.44
2022-09-05T17:39:50.389Z,100499.44
2022-09-05T17:42:28.350Z,100506.28
2022-09-05T17:45:15.024Z,100509.31
2022-09-05T17:47:52.075Z,100510.19
2022-09-05T17:50:24.706Z,100507.25
2022-09-05T17:52:56.223Z,100512.56
2022-09-05T17:55:37.872Z,100512.38
2022-09-05T17:58:16.592Z,100517.09
2022-09-05T18:00:44.589Z,100524.69
2022-09-05T18:03:11.259Z,100529.38
2022-09-05T18:05:56.938Z,100521.22
2022-09-05T18:08:41.977Z,100524.22
2022-09-05T18:11:14.306Z,100525.69
2022-09-05T18:14:03.164Z,100528.25
2022-09-05T18:16:43.363Z,100537.63
2022-09-05T18:20:00.393Z,100530.88
2022-09-05T18:22:36.925Z,100527.56
2022-09-05T18:25:33.633Z,100522.50
2022-09-05T18:28:17.115Z,100522.53
2022-09-05T18:30:45.316Z,100524.41
2022-09-05T18:33:53.345Z,100518.34
2022-09-05T18:36:00.389Z,100525.28
2022-09-05T18:38:51.355Z,100529.28
2022-09-05T18:41:18.434Z,100529.69
2022-09-05T18:44:12.531Z,100531.81
2022-09-05T18:46:44.954Z,100528.84
2022-09-05T18:50:23.344Z,100524.19
2022-09-05T18:52:15.973Z,100524.00
2022-09-05T18:54:44.149Z,100526.31
2022-09-05T18:57:27.203Z,100528.84
2022-09-05T19:00:01.152Z,100536.41
2022-09-05T19:02:50.395Z,100524.22
2022-09-05T19:05:28.482Z,100530.94
2022-09-05T19:07:59.834Z,100535.53
2022-09-05T19:10:35.055Z,100538.47
2022-09-05T19:13:13.008Z,100527.94
2022-09-05T19:16:42.554Z,100525.41
2022-09-05T19:19:00.080Z,100525.81
2022-09-05T19:21:33.225Z,100521.16
2022-09-05T19:24:03.233Z,100517.56
2022-09-05T19:37:12.862Z,100508.03
2022-09-05T19:37:15.394Z,100509.31
2022-09-05T19:37:37.418Z,100505.09
2022-09-05T19:43:14.235Z,100505.09
2022-09-05T19:47:33.736Z,100510.75
2022-09-05T19:47:39.631Z,100500.03
2022-09-05T19:48:29.257Z,100500.44
2022-09-05T19:51:16.868Z,100499.59
2022-09-05T19:54:05.405Z,100496.59
2022-09-05T19:56:35.091Z,100494.94
2022-09-05T19:59:01.788Z,100490.72
2022-09-05T20:01:28.840Z,100493.66
2022-09-05T20:03:55.899Z,100488.19
2022-09-05T20:06:30.991Z,100490.72
2022-09-05T20:09:17.438Z,100503.13
2022-09-05T20:11:54.747Z,100497.47
2022-09-05T20:14:31.365Z,100496.19
2022-09-05T20:17:18.106Z,100492.84
2022-09-05T20:19:45.430Z,100493.03
2022-09-05T20:22:47.303Z,100496.59
2022-09-05T20:25:04.209Z,100494.88
2022-09-05T20:27:30.952Z,100481.44
2022-09-05T20:30:00.145Z,100487.31
2022-09-05T20:32:39.904Z,100493.56
2022-09-05T20:39:03.928Z,100492.31
2022-09-05T20:43:11.062Z,100494.38
2022-09-05T20:43:31.464Z,100497.69
2022-09-05T20:43:55.807Z,100491.38
2022-09-05T20:49:52.574Z,100498.91
2022-09-05T20:54:07.326Z,100498.03
2022-09-05T20:54:17.839Z,100488.34
2022-09-05T20:54:57.942Z,100485.81
2022-09-05T20:57:31.342Z,100489.59
2022-09-05T21:00:28.038Z,100496.75
2022-09-05T21:02:58.422Z,100489.59
2022-09-05T21:05:26.953Z,100495.44
2022-09-05T21:08:15.625Z,100493.09
2022-09-05T21:10:55.941Z,100486.34
2022-09-05T21:13:31.439Z,100482.31
2022-09-05T21:15:58.977Z,100484.44
2022-09-05T21:18:33.487Z,100490.72
2022-09-05T21:21:14.641Z,100486.09
2022-09-05T21:24:05.263Z,100487.78
2022-09-05T21:26:43.816Z,100485.69
2022-09-05T21:29:13.276Z,100481.94
2022-09-05T21:31:44.135Z,100480.22
2022-09-05T21:34:31.266Z,100481.94
2022-09-05T21:37:06.907Z,100476.88
2022-09-05T21:40:00.468Z,100479.59
2022-09-05T21:47:34.483Z,100467.66
2022-09-05T21:47:49.353Z,100474.13
2022-09-05T21:48:05.901Z,100471.41
2022-09-05T21:50:34.314Z,100471.41
2022-09-05T21:53:49.634Z,100474.78
2022-09-05T21:59:17.795Z,100473.50
2022-09-05T21:59:30.192Z,100474.94
2022-09-05T22:01:51.556Z,100474.31
2022-09-05T22:04:10.316Z,100480.16
2022-09-05T22:06:36.905Z,100468.38
2022-09-05T22:09:13.734Z,100481.19
2022-09-05T22:11:41.140Z,100473.00
2022-09-05T22:14:09.256Z,100474.69
2022-09-05T22:16:45.155Z,100481.81
2022-09-05T22:19:14.682Z,100473.63
2022-09-05T22:21:41.220Z,100483.53
2022-09-05T22:24:09.355Z,100481.00
2022-09-05T22:26:40.393Z,100482.22
2022-09-05T22:29:25.040Z,100483.88
2022-09-05T22:31:53.087Z,100488.91
2022-09-05T22:34:19.631Z,100482.16
2022-09-05T22:36:46.208Z,100478.78
2022-09-05T22:39:12.820Z,100477.47
2022-09-05T22:41:54.048Z,100479.97
2022-09-05T22:44:20.631Z,100478.66
2022-09-05T22:46:47.252Z,100473.59
2022-09-05T22:49:13.889Z,100476.06
2022-09-05T22:51:40.398Z,100471.41
2022-09-05T22:54:06.937Z,100460.03
2022-09-05T22:56:37.466Z,100472.19
2022-09-05T22:59:04.941Z,100461.88
2022-09-05T23:01:32.079Z,100453.63
2022-09-05T23:03:58.811Z,100461.13
2022-09-05T23:06:25.552Z,100457.78
2022-09-05T23:15:57.746Z,100455.16
2022-09-05T23:18:24.441Z,100447.63
2022-09-05T23:20:50.964Z,100450.97
2022-09-05T23:23:17.452Z,100444.53
2022-09-05T23:25:43.929Z,100445.16
2022-09-05T23:28:10.603Z,100444.13
2022-09-05T23:30:37.592Z,100439.91
2022-09-05T23:33:08.316Z,100432.09
2022-09-05T23:35:35.455Z,100434.56
2022-09-05T23:38:02.001Z,100430.34
2022-09-05T23:40:28.816Z,100430.34
2022-09-05T23:42:56.360Z,100425.94
2022-09-05T23:45:23.585Z,100421.50
2022-09-05T23:47:50.155Z,100424.88
2022-09-05T23:50:17.363Z,100426.13
2022-09-05T23:52:44.893Z,100424.00
2022-09-05T23:55:15.075Z,100431.88
2022-09-05T23:57:42.005Z,100427.22
